createdAt,value
2019-01-27T00:00:20.630Z,34.30
2019-01-27T00:01:20.596Z,52.70
2019-01-27T00:02:20.559Z,46.60
2019-01-27T00:03:20.525Z,57.60
2019-01-27T00:04:20.493Z,46.60
2019-01-27T00:05:20.457Z,49.80
2019-01-27T00:06:20.425Z,65.70
2019-01-27T00:07:20.390Z,82.40
2019-01-27T00:08:20.358Z,59.40
2019-01-27T00:09:20.319Z,40.00
2019-01-27T00:10:20.288Z,92.60
2019-01-27T00:11:20.252Z,69.20
2019-01-27T00:12:20.218Z,83.50
2019-01-27T00:13:20.183Z,42.70
2019-01-27T00:14:20.149Z,43.10
2019-01-27T00:15:20.118Z,46.40
2019-01-27T00:16:20.081Z,35.90
2019-01-27T00:17:20.047Z,135.60
2019-01-27T00:18:20.013Z,40.10
2019-01-27T00:19:19.979Z,58.20
2019-01-27T00:20:19.945Z,42.00
2019-01-27T00:21:19.968Z,54.00
2019-01-27T00:22:19.877Z,70.20
2019-01-27T00:23:19.843Z,50.70
2019-01-27T00:24:19.809Z,43.60
2019-01-27T00:25:19.775Z,30.30
2019-01-27T00:26:19.739Z,66.10
2019-01-27T00:27:19.708Z,39.50
2019-01-27T00:28:19.672Z,52.80
2019-01-27T00:29:19.637Z,60.70
2019-01-27T00:30:19.603Z,56.40
2019-01-27T00:31:19.570Z,55.10
2019-01-27T00:32:19.534Z,60.50
2019-01-27T00:33:19.500Z,54.90
2019-01-27T00:34:19.467Z,47.80
2019-01-27T00:35:19.432Z,29.10
2019-01-27T00:36:19.399Z,45.60
2019-01-27T00:37:19.367Z,33.40
2019-01-27T00:38:19.329Z,50.40
2019-01-27T00:39:19.296Z,71.30
2019-01-27T00:40:19.260Z,27.40
2019-01-27T00:41:19.226Z,36.70
2019-01-27T00:42:19.191Z,62.00
2019-01-27T00:43:19.158Z,28.50
2019-01-27T00:44:19.125Z,47.30
2019-01-27T00:45:19.088Z,90.30
2019-01-27T00:46:19.055Z,40.90
2019-01-27T00:47:19.023Z,35.70
2019-01-27T00:48:18.987Z,27.00
2019-01-27T00:49:18.956Z,26.00
2019-01-27T00:50:18.943Z,29.30
2019-01-27T00:51:18.883Z,31.20
2019-01-27T00:52:18.849Z,34.00
2019-01-27T00:53:18.818Z,32.20
2019-01-27T00:54:18.780Z,32.60
2019-01-27T00:55:18.759Z,46.60
2019-01-27T00:56:18.712Z,30.80
2019-01-27T00:57:18.677Z,40.20
2019-01-27T00:58:18.646Z,29.90
2019-01-27T00:59:18.611Z,30.10
2019-01-27T01:00:18.575Z,38.90
2019-01-27T01:01:18.538Z,28.00
2019-01-27T01:02:18.507Z,25.80
2019-01-27T01:03:18.472Z,26.70
2019-01-27T01:04:18.437Z,29.80
2019-01-27T01:05:18.402Z,28.80
2019-01-27T01:06:18.369Z,20.90
2019-01-27T01:07:18.337Z,20.10
2019-01-27T01:08:18.299Z,22.20
2019-01-27T01:09:18.264Z,24.30
2019-01-27T01:10:18.230Z,27.90
2019-01-27T01:11:18.195Z,24.20
2019-01-27T01:12:18.161Z,33.00
2019-01-27T01:13:18.127Z,30.40
2019-01-27T01:14:18.092Z,27.60
2019-01-27T01:15:18.057Z,24.40
2019-01-27T01:16:18.024Z,24.70
2019-01-27T01:17:17.989Z,21.30
2019-01-27T01:18:17.954Z,18.10
2019-01-27T01:19:17.921Z,21.60
2019-01-27T01:20:17.886Z,19.30
2019-01-27T01:21:17.851Z,18.30
2019-01-27T01:22:17.816Z,21.20
2019-01-27T01:23:17.782Z,21.00
2019-01-27T01:24:17.748Z,21.60
2019-01-27T01:25:17.714Z,23.00
2019-01-27T01:26:17.679Z,22.90
2019-01-27T01:27:17.645Z,27.60
2019-01-27T01:28:17.610Z,18.60
2019-01-27T01:29:17.574Z,18.60
2019-01-27T01:30:17.542Z,18.50
2019-01-27T01:31:17.506Z,18.80
2019-01-27T01:32:17.472Z,14.60
2019-01-27T01:33:17.441Z,18.00
2019-01-27T01:34:17.417Z,15.70
2019-01-27T01:35:17.369Z,15.10
2019-01-27T01:36:17.335Z,13.00
2019-01-27T01:37:17.300Z,13.50
2019-01-27T01:38:17.265Z,13.60
2019-01-27T01:39:17.232Z,14.40
2019-01-27T01:40:17.201Z,14.50
2019-01-27T01:41:17.162Z,13.00
2019-01-27T01:42:17.128Z,13.30
2019-01-27T01:43:17.094Z,12.60
2019-01-27T01:44:17.060Z,13.40
2019-01-27T01:45:17.026Z,11.90
2019-01-27T01:46:16.990Z,12.70
2019-01-27T01:47:16.956Z,12.40
2019-01-27T01:48:16.923Z,13.70
2019-01-27T01:49:16.887Z,13.40
2019-01-27T01:50:16.854Z,12.80
2019-01-27T01:51:16.818Z,13.00
2019-01-27T01:52:16.784Z,12.70
2019-01-27T01:53:16.752Z,12.70
2019-01-27T01:54:16.716Z,12.40
2019-01-27T01:55:16.681Z,12.20
2019-01-27T01:56:16.648Z,12.60
2019-01-27T01:57:16.616Z,13.50
2019-01-27T01:58:16.587Z,12.00
2019-01-27T01:59:16.544Z,12.20
2019-01-27T02:00:16.509Z,12.70
2019-01-27T02:01:16.474Z,11.20
2019-01-27T02:02:16.440Z,11.50
2019-01-27T02:03:16.407Z,10.90
2019-01-27T02:04:16.371Z,11.70
2019-01-27T02:05:16.336Z,11.80
2019-01-27T02:06:16.304Z,12.60
2019-01-27T02:07:16.268Z,12.30
2019-01-27T02:08:16.234Z,12.30
2019-01-27T02:09:16.200Z,13.60
2019-01-27T02:10:16.166Z,13.10
2019-01-27T02:11:16.130Z,12.70
2019-01-27T02:12:16.098Z,12.30
2019-01-27T02:13:16.062Z,12.40
2019-01-27T02:14:16.026Z,11.40
2019-01-27T02:15:15.994Z,14.00
2019-01-27T02:16:15.957Z,12.20
2019-01-27T02:17:15.947Z,12.50
2019-01-27T02:18:15.892Z,13.60
2019-01-27T02:19:15.855Z,13.40
2019-01-27T02:20:15.820Z,12.20
2019-01-27T02:21:15.785Z,12.30
2019-01-27T02:22:15.751Z,13.40
2019-01-27T02:23:15.715Z,13.40
2019-01-27T02:24:15.681Z,13.10
2019-01-27T02:25:15.645Z,12.90
2019-01-27T02:26:15.611Z,12.80
2019-01-27T02:27:15.578Z,12.90
2019-01-27T02:28:15.543Z,12.20
2019-01-27T02:29:15.507Z,12.40
2019-01-27T02:30:15.473Z,12.80
2019-01-27T02:31:15.440Z,12.20
2019-01-27T02:32:15.405Z,12.10
2019-01-27T02:33:15.368Z,11.10
2019-01-27T02:34:15.334Z,11.60
2019-01-27T02:35:15.300Z,11.50
2019-01-27T02:36:15.267Z,11.40
2019-01-27T02:37:15.233Z,11.70
2019-01-27T02:38:15.197Z,11.70
2019-01-27T02:39:15.162Z,12.10
2019-01-27T02:40:15.130Z,10.70
2019-01-27T02:41:15.092Z,12.10
2019-01-27T02:42:15.058Z,11.60
2019-01-27T02:43:15.024Z,11.70
2019-01-27T02:44:14.989Z,11.40
2019-01-27T02:45:14.955Z,11.10
2019-01-27T02:46:14.920Z,11.30
2019-01-27T02:47:14.884Z,10.30
2019-01-27T02:48:14.853Z,11.60
2019-01-27T02:49:14.816Z,11.50
2019-01-27T02:50:14.781Z,11.30
2019-01-27T02:51:14.753Z,10.10
2019-01-27T02:52:14.712Z,10.90
2019-01-27T02:53:14.681Z,10.60
2019-01-27T02:54:14.643Z,11.80
2019-01-27T02:55:14.611Z,10.90
2019-01-27T02:56:14.574Z,11.30
2019-01-27T02:57:14.537Z,11.00
2019-01-27T02:58:14.506Z,11.70
2019-01-27T02:59:14.470Z,10.70
2019-01-27T03:00:14.436Z,11.60
2019-01-27T03:01:14.400Z,10.50
2019-01-27T03:02:14.373Z,10.60
2019-01-27T03:03:14.331Z,11.60
2019-01-27T03:04:14.298Z,10.50
2019-01-27T03:05:14.261Z,10.00
2019-01-27T03:06:14.227Z,11.20
2019-01-27T03:07:14.194Z,11.80
2019-01-27T03:08:14.161Z,11.10
2019-01-27T03:09:14.123Z,11.10
2019-01-27T03:10:14.090Z,10.40
2019-01-27T03:11:14.057Z,10.70
2019-01-27T03:12:14.020Z,10.60
2019-01-27T03:13:13.986Z,9.40
2019-01-27T03:14:13.955Z,10.50
2019-01-27T03:15:13.922Z,10.30
2019-01-27T03:16:13.882Z,10.20
2019-01-27T03:17:13.847Z,10.10
2019-01-27T03:18:13.812Z,10.00
2019-01-27T03:19:13.778Z,9.30
2019-01-27T03:20:13.745Z,9.30
2019-01-27T03:21:13.711Z,10.10
2019-01-27T03:22:13.677Z,9.40
2019-01-27T03:23:13.643Z,9.50
2019-01-27T03:24:13.607Z,9.50
2019-01-27T03:25:13.570Z,9.20
2019-01-27T03:26:13.536Z,9.50
2019-01-27T03:27:13.502Z,10.00
2019-01-27T03:28:13.467Z,9.80
2019-01-27T03:29:13.431Z,10.20
2019-01-27T03:30:13.414Z,9.20
2019-01-27T03:31:13.364Z,10.30
2019-01-27T03:32:13.331Z,10.20
2019-01-27T03:33:13.302Z,10.00
2019-01-27T03:34:13.261Z,9.40
2019-01-27T03:35:13.225Z,9.30
2019-01-27T03:36:13.192Z,10.50
2019-01-27T03:37:13.155Z,9.90
2019-01-27T03:38:13.121Z,9.80
2019-01-27T03:39:13.087Z,9.60
2019-01-27T03:40:13.052Z,9.80
2019-01-27T03:41:13.017Z,10.20
2019-01-27T03:42:12.984Z,9.00
2019-01-27T03:43:12.948Z,9.80
2019-01-27T03:44:12.915Z,10.00
2019-01-27T03:45:12.879Z,9.70
2019-01-27T03:46:12.847Z,9.50
2019-01-27T03:47:12.811Z,9.80
2019-01-27T03:48:12.776Z,10.30
2019-01-27T03:49:12.742Z,10.60
2019-01-27T03:50:12.707Z,9.20
2019-01-27T03:51:12.677Z,9.10
2019-01-27T03:52:12.637Z,9.00
2019-01-27T03:53:12.603Z,9.40
2019-01-27T03:54:12.569Z,9.80
2019-01-27T03:55:12.534Z,9.90
2019-01-27T03:56:12.501Z,9.90
2019-01-27T03:57:12.464Z,8.60
2019-01-27T03:58:12.432Z,9.40
2019-01-27T03:59:12.395Z,9.50
2019-01-27T04:00:12.362Z,9.60
2019-01-27T04:01:12.326Z,9.40
2019-01-27T04:02:12.293Z,9.10
2019-01-27T04:03:12.258Z,9.50
2019-01-27T04:04:12.224Z,9.30
2019-01-27T04:05:12.188Z,9.10
2019-01-27T04:06:12.153Z,8.40
2019-01-27T04:07:12.140Z,8.80
2019-01-27T04:08:12.089Z,9.40
2019-01-27T04:09:12.054Z,9.30
2019-01-27T04:10:12.015Z,8.80
2019-01-27T04:11:11.985Z,9.20
2019-01-27T04:12:11.950Z,10.00
2019-01-27T04:13:11.913Z,8.70
2019-01-27T04:14:11.878Z,9.00
2019-01-27T04:15:11.844Z,9.20
2019-01-27T04:16:11.810Z,9.30
2019-01-27T04:17:11.775Z,9.50
2019-01-27T04:18:11.738Z,9.10
2019-01-27T04:19:11.703Z,9.10
2019-01-27T04:20:11.671Z,8.90
2019-01-27T04:21:11.634Z,10.10
2019-01-27T04:22:11.600Z,9.10
2019-01-27T04:23:11.566Z,9.10
2019-01-27T04:24:11.532Z,10.30
2019-01-27T04:25:11.497Z,9.50
2019-01-27T04:26:11.465Z,9.80
2019-01-27T04:27:11.428Z,9.40
2019-01-27T04:28:11.562Z,10.20
2019-01-27T04:29:11.359Z,9.20
2019-01-27T04:30:11.324Z,9.50
2019-01-27T04:31:11.289Z,10.90
2019-01-27T04:32:11.256Z,9.20
2019-01-27T04:33:11.220Z,8.60
2019-01-27T04:34:11.188Z,9.50
2019-01-27T04:35:11.156Z,9.70
2019-01-27T04:36:11.116Z,10.30
2019-01-27T04:37:11.080Z,9.60
2019-01-27T04:38:11.047Z,9.50
2019-01-27T04:39:11.014Z,9.40
2019-01-27T04:40:10.979Z,9.10
2019-01-27T04:41:10.944Z,9.50
2019-01-27T04:42:10.909Z,9.70
2019-01-27T04:43:10.873Z,9.30
2019-01-27T04:44:10.842Z,9.30
2019-01-27T04:45:10.804Z,9.60
2019-01-27T04:46:10.771Z,8.90
2019-01-27T04:47:10.737Z,9.30
2019-01-27T04:48:10.701Z,9.50
2019-01-27T04:49:10.666Z,9.90
2019-01-27T04:50:10.633Z,10.30
2019-01-27T04:51:10.598Z,9.80
2019-01-27T04:52:10.563Z,9.90
2019-01-27T04:53:10.529Z,9.60
2019-01-27T04:54:10.502Z,9.60
2019-01-27T04:55:10.460Z,9.00
2019-01-27T04:56:10.423Z,8.80
2019-01-27T04:57:10.389Z,10.60
2019-01-27T04:58:10.363Z,9.30
2019-01-27T04:59:10.323Z,9.30
2019-01-27T05:00:10.286Z,9.30
2019-01-27T05:01:10.250Z,8.70
2019-01-27T05:02:10.218Z,8.80
2019-01-27T05:03:10.182Z,8.60
2019-01-27T05:04:10.149Z,9.50
2019-01-27T05:05:10.115Z,8.70
2019-01-27T05:06:10.082Z,9.50
2019-01-27T05:07:10.051Z,9.00
2019-01-27T05:08:10.011Z,8.60
2019-01-27T05:09:09.975Z,9.10
2019-01-27T05:10:09.940Z,9.00
2019-01-27T05:11:09.909Z,8.60
2019-01-27T05:12:09.872Z,9.40
2019-01-27T05:13:09.837Z,8.60
2019-01-27T05:14:09.802Z,9.50
2019-01-27T05:15:09.768Z,8.80
2019-01-27T05:16:09.733Z,9.20
2019-01-27T05:17:09.699Z,9.30
2019-01-27T05:18:09.665Z,8.70
2019-01-27T05:19:09.630Z,8.90
2019-01-27T05:20:09.599Z,8.80
2019-01-27T05:21:09.559Z,9.40
2019-01-27T05:22:09.525Z,9.40
2019-01-27T05:23:09.492Z,9.40
2019-01-27T05:24:09.457Z,9.80
2019-01-27T05:25:09.422Z,9.50
2019-01-27T05:26:09.391Z,9.40
2019-01-27T05:27:09.407Z,9.70
2019-01-27T05:28:09.317Z,9.60
2019-01-27T05:29:09.282Z,9.40
2019-01-27T05:30:09.249Z,10.00
2019-01-27T05:31:09.215Z,10.20
2019-01-27T05:32:09.179Z,10.60
2019-01-27T05:33:09.144Z,10.40
2019-01-27T05:34:09.110Z,10.20
2019-01-27T05:35:09.075Z,9.60
2019-01-27T05:36:09.042Z,10.50
2019-01-27T05:37:09.006Z,9.70
2019-01-27T05:38:08.972Z,10.10
2019-01-27T05:39:08.938Z,10.10
2019-01-27T05:40:08.902Z,10.70
2019-01-27T05:41:08.866Z,10.00
2019-01-27T05:42:08.833Z,10.10
2019-01-27T05:43:08.800Z,10.10
2019-01-27T05:44:08.763Z,10.20
2019-01-27T05:45:08.729Z,9.90
2019-01-27T05:46:08.697Z,9.80
2019-01-27T05:47:08.667Z,10.10
2019-01-27T05:48:08.627Z,9.30
2019-01-27T05:49:08.592Z,10.30
2019-01-27T05:50:08.556Z,10.70
2019-01-27T05:51:08.521Z,10.10
2019-01-27T05:52:08.489Z,9.70
2019-01-27T05:53:08.453Z,9.90
2019-01-27T05:54:08.417Z,10.20
2019-01-27T05:55:08.384Z,10.40
2019-01-27T05:56:08.353Z,9.40
2019-01-27T05:57:08.314Z,9.50
2019-01-27T05:58:08.280Z,8.80
2019-01-27T05:59:08.245Z,10.10
2019-01-27T06:00:08.213Z,9.90
2019-01-27T06:01:08.175Z,9.80
2019-01-27T06:02:08.141Z,9.90
2019-01-27T06:03:08.106Z,10.80
2019-01-27T06:04:08.071Z,9.80
2019-01-27T06:05:08.037Z,10.00
2019-01-27T06:06:08.004Z,10.00
2019-01-27T06:07:07.967Z,10.30
2019-01-27T06:08:07.932Z,10.10
2019-01-27T06:09:07.898Z,10.30
2019-01-27T06:10:07.865Z,10.40
2019-01-27T06:11:07.830Z,10.60
2019-01-27T06:12:07.795Z,10.30
2019-01-27T06:13:07.759Z,9.60
2019-01-27T06:14:07.726Z,9.50
2019-01-27T06:15:07.695Z,9.70
2019-01-27T06:16:07.657Z,10.00
2019-01-27T06:17:07.621Z,10.70
2019-01-27T06:18:07.588Z,9.70
2019-01-27T06:19:07.553Z,9.70
2019-01-27T06:20:07.519Z,10.10
2019-01-27T06:21:07.487Z,10.00
2019-01-27T06:22:07.450Z,10.50
2019-01-27T06:23:07.418Z,10.10
2019-01-27T06:24:07.386Z,9.60
2019-01-27T06:25:07.346Z,9.90
2019-01-27T06:26:07.314Z,9.70
2019-01-27T06:27:07.279Z,8.90
2019-01-27T06:28:07.245Z,10.70
2019-01-27T06:29:07.207Z,10.80
2019-01-27T06:30:07.172Z,10.50
2019-01-27T06:31:07.137Z,10.20
2019-01-27T06:32:07.103Z,10.80
2019-01-27T06:33:07.069Z,10.60
2019-01-27T06:34:07.034Z,11.00
2019-01-27T06:35:06.999Z,10.30
2019-01-27T06:36:06.969Z,10.10
2019-01-27T06:37:06.939Z,11.00
2019-01-27T06:38:06.895Z,10.70
2019-01-27T06:39:06.861Z,11.00
2019-01-27T06:40:06.827Z,10.50
2019-01-27T06:41:06.791Z,11.40
2019-01-27T06:42:06.757Z,11.20
2019-01-27T06:43:06.722Z,11.20
2019-01-27T06:44:06.690Z,11.50
2019-01-27T06:45:06.654Z,9.90
2019-01-27T06:46:06.619Z,11.30
2019-01-27T06:47:06.584Z,11.40
2019-01-27T06:48:06.552Z,11.60
2019-01-27T06:49:06.514Z,11.90
2019-01-27T06:50:06.481Z,12.50
2019-01-27T06:51:06.447Z,11.70
2019-01-27T06:52:06.412Z,11.40
2019-01-27T06:53:06.376Z,11.80
2019-01-27T06:54:06.342Z,11.60
2019-01-27T06:55:06.307Z,11.90
2019-01-27T06:56:06.272Z,12.30
2019-01-27T06:57:06.237Z,11.00
2019-01-27T06:58:06.204Z,11.90
2019-01-27T06:59:06.171Z,12.20
2019-01-27T07:00:06.134Z,12.40
2019-01-27T07:01:06.100Z,11.60
2019-01-27T07:02:06.066Z,12.10
2019-01-27T07:03:06.031Z,12.30
2019-01-27T07:04:05.998Z,12.70
2019-01-27T07:05:05.961Z,12.80
2019-01-27T07:06:05.926Z,13.60
2019-01-27T07:07:05.892Z,13.10
2019-01-27T07:08:05.903Z,12.90
2019-01-27T07:09:05.823Z,12.90
2019-01-27T07:10:05.788Z,11.40
2019-01-27T07:11:05.754Z,12.90
2019-01-27T07:12:05.719Z,13.60
2019-01-27T07:13:05.684Z,12.50
2019-01-27T07:14:05.660Z,12.40
2019-01-27T07:15:05.618Z,13.10
2019-01-27T07:16:05.581Z,12.70
2019-01-27T07:17:05.545Z,13.80
2019-01-27T07:18:05.512Z,13.30
2019-01-27T07:19:05.477Z,13.50
2019-01-27T07:20:05.443Z,13.40
2019-01-27T07:21:05.406Z,12.80
2019-01-27T07:22:05.375Z,12.60
2019-01-27T07:23:05.339Z,12.30
2019-01-27T07:24:05.307Z,12.40
2019-01-27T07:25:05.271Z,12.90
2019-01-27T07:26:05.236Z,13.20
2019-01-27T07:27:05.200Z,12.60
2019-01-27T07:28:05.165Z,12.20
2019-01-27T07:29:05.131Z,12.90
2019-01-27T07:30:05.097Z,13.20
2019-01-27T07:31:05.061Z,13.40
2019-01-27T07:32:05.027Z,14.60
2019-01-27T07:33:04.994Z,13.30
2019-01-27T07:34:04.958Z,13.30
2019-01-27T07:35:04.923Z,12.70
2019-01-27T07:36:04.887Z,14.00
2019-01-27T07:37:04.852Z,13.00
2019-01-27T07:38:04.819Z,12.80
2019-01-27T07:39:04.785Z,13.80
2019-01-27T07:40:04.749Z,14.00
2019-01-27T07:41:04.714Z,13.90
2019-01-27T07:42:04.679Z,14.20
2019-01-27T07:43:04.651Z,14.10
2019-01-27T07:44:04.611Z,14.20
2019-01-27T07:45:04.576Z,13.40
2019-01-27T07:46:04.543Z,15.20
2019-01-27T07:47:04.507Z,14.30
2019-01-27T07:48:04.475Z,14.30
2019-01-27T07:49:04.440Z,13.60
2019-01-27T07:50:04.407Z,13.60
2019-01-27T07:51:04.370Z,13.30
2019-01-27T07:52:04.335Z,14.00
2019-01-27T07:53:04.300Z,14.40
2019-01-27T07:54:04.266Z,14.40
2019-01-27T07:55:04.231Z,14.30
2019-01-27T07:56:04.247Z,14.70
2019-01-27T07:57:04.161Z,13.10
2019-01-27T07:58:04.129Z,14.00
2019-01-27T07:59:04.094Z,15.30
2019-01-27T08:00:04.062Z,14.60
2019-01-27T08:01:04.024Z,13.50
2019-01-27T08:02:03.990Z,15.60
2019-01-27T08:03:03.954Z,14.60
2019-01-27T08:04:03.920Z,14.00
2019-01-27T08:05:03.885Z,13.50
2019-01-27T08:06:03.851Z,12.90
2019-01-27T08:07:04.365Z,14.00
2019-01-27T08:08:03.782Z,13.80
2019-01-27T08:09:03.746Z,13.80
2019-01-27T08:10:03.712Z,14.00
2019-01-27T08:11:03.677Z,13.60
2019-01-27T08:12:03.661Z,13.80
2019-01-27T08:13:03.609Z,13.50
2019-01-27T08:14:03.574Z,13.00
2019-01-27T08:15:03.540Z,14.40
2019-01-27T08:16:03.505Z,13.20
2019-01-27T08:17:03.636Z,14.50
2019-01-27T08:18:03.437Z,13.10
2019-01-27T08:19:03.401Z,13.10
2019-01-27T08:20:03.366Z,12.90
2019-01-27T08:21:03.334Z,13.00
2019-01-27T08:22:03.297Z,13.40
2019-01-27T08:23:03.262Z,13.70
2019-01-27T08:24:03.230Z,13.90
2019-01-27T08:25:03.239Z,15.30
2019-01-27T08:26:03.158Z,13.30
2019-01-27T08:27:03.125Z,13.80
2019-01-27T08:28:03.091Z,14.10
2019-01-27T08:29:03.058Z,13.50
2019-01-27T08:30:03.021Z,13.60
2019-01-27T08:31:02.988Z,13.20
2019-01-27T08:32:02.952Z,14.20
2019-01-27T08:33:02.920Z,12.80
2019-01-27T08:34:02.886Z,13.70
2019-01-27T08:35:02.851Z,12.80
2019-01-27T08:36:02.819Z,12.70
2019-01-27T08:37:02.781Z,12.20
2019-01-27T08:38:02.746Z,11.90
2019-01-27T08:39:02.713Z,12.80
2019-01-27T08:40:02.677Z,13.00
2019-01-27T08:41:02.644Z,12.80
2019-01-27T08:42:02.607Z,12.30
2019-01-27T08:43:02.581Z,12.60
2019-01-27T08:44:02.540Z,12.90
2019-01-27T08:45:02.505Z,13.20
2019-01-27T08:46:02.472Z,12.80
2019-01-27T08:47:02.436Z,12.60
2019-01-27T08:48:02.404Z,12.90
2019-01-27T08:49:02.368Z,12.50
2019-01-27T08:50:02.335Z,12.90
2019-01-27T08:51:02.300Z,12.30
2019-01-27T08:52:02.267Z,13.50
2019-01-27T08:53:02.231Z,13.80
2019-01-27T08:54:02.197Z,14.10
2019-01-27T08:55:02.165Z,13.20
2019-01-27T08:56:02.131Z,12.10
2019-01-27T08:57:02.094Z,12.90
2019-01-27T08:58:02.061Z,12.90
2019-01-27T08:59:02.030Z,13.20
2019-01-27T09:00:01.995Z,15.70
2019-01-27T09:01:01.958Z,11.20
2019-01-27T09:02:01.924Z,11.20
2019-01-27T09:03:03.388Z,13.10
2019-01-27T09:04:01.859Z,12.20
2019-01-27T09:05:01.822Z,11.70
2019-01-27T09:06:01.790Z,13.40
2019-01-27T09:07:01.754Z,11.20
2019-01-27T09:08:01.722Z,15.00
2019-01-27T09:09:01.688Z,20.30
2019-01-27T09:10:01.654Z,13.00
2019-01-27T09:11:01.618Z,12.40
2019-01-27T09:12:01.586Z,13.10
2019-01-27T09:13:01.550Z,17.00
2019-01-27T09:14:01.879Z,16.20
2019-01-27T09:15:01.483Z,13.30
2019-01-27T09:16:01.449Z,11.20
2019-01-27T09:17:01.415Z,16.80
2019-01-27T09:18:01.380Z,12.70
2019-01-27T09:19:01.347Z,9.90
2019-01-27T09:20:01.315Z,11.00
2019-01-27T09:21:01.279Z,9.70
2019-01-27T09:22:01.468Z,9.40
2019-01-27T09:23:01.213Z,9.80
2019-01-27T09:24:01.180Z,10.20
2019-01-27T09:25:01.145Z,10.30
2019-01-27T09:26:01.110Z,9.40
2019-01-27T09:27:01.076Z,9.60
2019-01-27T09:28:01.043Z,10.50
2019-01-27T09:29:01.008Z,9.00
2019-01-27T09:30:00.980Z,8.20
2019-01-27T09:31:00.940Z,8.00
2019-01-27T09:32:00.916Z,7.80
2019-01-27T09:33:00.874Z,6.30
2019-01-27T09:34:00.840Z,6.50
2019-01-27T09:35:00.809Z,6.40
2019-01-27T09:36:00.774Z,6.20
2019-01-27T09:37:00.743Z,5.70
2019-01-27T09:38:00.713Z,5.80
2019-01-27T09:39:00.681Z,8.00
2019-01-27T09:40:00.647Z,6.90
2019-01-27T09:41:00.612Z,7.00
2019-01-27T09:42:00.578Z,6.40
2019-01-27T09:43:00.545Z,6.80
2019-01-27T09:44:00.513Z,7.60
2019-01-27T09:45:00.479Z,7.00
2019-01-27T09:46:05.429Z,7.40
2019-01-27T09:47:00.412Z,7.70
2019-01-27T09:48:00.381Z,7.30
2019-01-27T09:49:00.347Z,7.80
2019-01-27T09:50:00.315Z,7.20
2019-01-27T09:51:00.282Z,6.60
2019-01-27T09:52:00.249Z,7.10
2019-01-27T09:53:00.214Z,7.70
2019-01-27T09:54:00.181Z,6.50
2019-01-27T09:55:00.240Z,7.30
2019-01-27T09:56:00.117Z,8.10
2019-01-27T09:57:00.084Z,8.10
2019-01-27T09:58:00.050Z,6.80
2019-01-27T09:59:00.017Z,7.10
2019-01-27T09:59:59.983Z,6.40
2019-01-27T10:00:59.955Z,6.70
2019-01-27T10:01:59.917Z,6.80
2019-01-27T10:02:59.885Z,5.50
2019-01-27T10:03:59.852Z,7.60
2019-01-27T10:04:59.921Z,7.20
2019-01-27T10:05:59.785Z,6.80
2019-01-27T10:06:59.765Z,8.20
2019-01-27T10:07:59.720Z,8.00
2019-01-27T10:08:59.684Z,9.20
2019-01-27T10:09:59.653Z,6.40
2019-01-27T10:10:59.619Z,6.40
2019-01-27T10:11:59.589Z,5.20
2019-01-27T10:12:59.553Z,7.20
2019-01-27T10:13:59.520Z,12.00
2019-01-27T10:14:59.487Z,11.70
2019-01-27T10:15:59.454Z,9.70
2019-01-27T10:16:59.421Z,8.50
2019-01-27T10:17:59.388Z,5.90
2019-01-27T10:18:59.355Z,5.30
2019-01-27T10:19:59.321Z,5.10
2019-01-27T10:20:59.292Z,10.40
2019-01-27T10:21:59.256Z,10.20
2019-01-27T10:22:59.222Z,12.20
2019-01-27T10:23:59.189Z,9.80
2019-01-27T10:24:59.157Z,8.80
2019-01-27T10:25:59.124Z,12.00
2019-01-27T10:26:59.090Z,5.30
2019-01-27T10:27:59.058Z,5.10
2019-01-27T10:28:59.025Z,9.80
2019-01-27T10:29:58.995Z,11.70
2019-01-27T10:30:58.959Z,16.20
2019-01-27T10:31:58.934Z,7.50
2019-01-27T10:32:58.895Z,9.60
2019-01-27T10:33:58.862Z,9.80
2019-01-27T10:34:59.497Z,5.90
2019-01-27T10:35:58.796Z,4.30
2019-01-27T10:36:58.761Z,8.70
2019-01-27T10:37:58.729Z,8.60
2019-01-27T10:38:58.698Z,8.30
2019-01-27T10:39:58.668Z,7.80
2019-01-27T10:40:58.631Z,11.30
2019-01-27T10:41:58.600Z,12.90
2019-01-27T10:42:58.567Z,7.00
2019-01-27T10:43:58.547Z,15.90
2019-01-27T10:44:58.501Z,18.10
2019-01-27T10:45:58.467Z,36.50
2019-01-27T10:46:58.435Z,21.10
2019-01-27T10:47:58.659Z,22.40
2019-01-27T10:48:58.370Z,9.00
2019-01-27T10:49:58.373Z,5.90
2019-01-27T10:50:58.304Z,5.00
2019-01-27T10:51:58.271Z,4.20
2019-01-27T10:52:58.239Z,7.10
2019-01-27T10:53:58.205Z,10.30
2019-01-27T10:54:58.170Z,3.50
2019-01-27T10:55:58.138Z,4.40
2019-01-27T10:56:58.104Z,3.50
2019-01-27T10:57:58.072Z,4.40
2019-01-27T10:58:58.042Z,3.60
2019-01-27T10:59:58.006Z,3.90
2019-01-27T11:00:57.971Z,3.20
2019-01-27T11:01:57.939Z,3.30
2019-01-27T11:02:57.910Z,3.40
2019-01-27T11:03:57.876Z,3.50
2019-01-27T11:04:57.840Z,3.40
2019-01-27T11:05:57.809Z,3.20
2019-01-27T11:06:57.776Z,3.30
2019-01-27T11:07:57.753Z,6.80
2019-01-27T11:08:57.712Z,11.30
2019-01-27T11:09:57.675Z,5.80
2019-01-27T11:10:57.642Z,4.70
2019-01-27T11:11:57.611Z,8.10
2019-01-27T11:12:57.582Z,4.40
2019-01-27T11:13:57.544Z,3.40
2019-01-27T11:14:57.515Z,4.10
2019-01-27T11:15:57.558Z,2.90
2019-01-27T11:16:57.446Z,3.00
2019-01-27T11:17:57.413Z,8.70
2019-01-27T11:18:57.382Z,4.60
2019-01-27T11:19:57.349Z,5.70
2019-01-27T11:20:57.315Z,3.50
2019-01-27T11:21:57.284Z,4.60
2019-01-27T11:22:57.252Z,5.00
2019-01-27T11:23:57.219Z,2.70
2019-01-27T11:24:57.187Z,5.00
2019-01-27T11:26:00.689Z,3.30
2019-01-27T11:26:57.122Z,2.40
2019-01-27T11:27:57.092Z,2.70
2019-01-27T11:28:57.058Z,2.70
2019-01-27T11:29:57.026Z,2.80
2019-01-27T11:30:56.994Z,3.50
2019-01-27T11:31:56.964Z,5.40
2019-01-27T11:32:56.928Z,2.90
2019-01-27T11:33:56.897Z,3.00
2019-01-27T11:34:56.866Z,2.90
2019-01-27T11:35:56.833Z,2.40
2019-01-27T11:36:56.800Z,6.50
2019-01-27T11:37:56.769Z,4.30
2019-01-27T11:38:56.738Z,1.80
2019-01-27T11:39:56.711Z,3.10
2019-01-27T11:40:56.671Z,2.00
2019-01-27T11:41:56.640Z,3.90
2019-01-27T11:42:56.608Z,3.70
2019-01-27T11:43:56.576Z,1.90
2019-01-27T11:44:56.544Z,2.10
2019-01-27T11:45:56.512Z,2.20
2019-01-27T11:46:56.479Z,1.80
2019-01-27T11:47:56.451Z,1.90
2019-01-27T11:48:56.417Z,2.30
2019-01-27T11:49:56.385Z,2.70
2019-01-27T11:50:56.355Z,2.90
2019-01-27T11:51:56.365Z,3.50
2019-01-27T11:52:56.291Z,3.50
2019-01-27T11:53:56.260Z,2.00
2019-01-27T11:54:56.229Z,2.50
2019-01-27T11:55:56.246Z,2.20
2019-01-27T11:56:56.167Z,2.90
2019-01-27T11:57:56.134Z,1.90
2019-01-27T11:58:56.102Z,1.80
2019-01-27T11:59:56.070Z,1.70
2019-01-27T12:00:56.037Z,1.70
2019-01-27T12:01:56.006Z,1.80
2019-01-27T12:02:55.974Z,1.60
2019-01-27T12:03:55.942Z,1.80
2019-01-27T12:04:55.910Z,1.70
2019-01-27T12:05:55.878Z,1.60
2019-01-27T12:06:55.848Z,1.70
2019-01-27T12:07:55.816Z,1.50
2019-01-27T12:08:55.782Z,1.70
2019-01-27T12:09:55.751Z,1.70
2019-01-27T12:10:55.718Z,1.60
2019-01-27T12:11:55.684Z,1.60
2019-01-27T12:12:55.652Z,1.80
2019-01-27T12:13:55.623Z,1.50
2019-01-27T12:14:55.590Z,1.60
2019-01-27T12:15:55.557Z,1.50
2019-01-27T12:16:55.523Z,1.80
2019-01-27T12:17:55.493Z,1.80
2019-01-27T12:18:55.462Z,1.60
2019-01-27T12:19:55.428Z,1.50
2019-01-27T12:20:55.397Z,1.50
2019-01-27T12:21:55.365Z,1.50
2019-01-27T12:22:55.332Z,1.70
2019-01-27T12:23:55.300Z,1.60
2019-01-27T12:24:55.267Z,1.70
2019-01-27T12:25:55.236Z,1.50
2019-01-27T12:26:55.203Z,1.70
2019-01-27T12:27:55.172Z,1.80
2019-01-27T12:28:55.138Z,1.60
2019-01-27T12:29:55.106Z,1.70
2019-01-27T12:30:55.075Z,1.60
2019-01-27T12:31:55.042Z,1.80
2019-01-27T12:32:55.009Z,1.60
2019-01-27T12:33:54.979Z,1.50
2019-01-27T12:34:54.946Z,1.90
2019-01-27T12:35:54.913Z,1.60
2019-01-27T12:36:54.880Z,1.90
2019-01-27T12:37:54.849Z,1.50
2019-01-27T12:38:54.815Z,1.60
2019-01-27T12:39:54.785Z,1.70
2019-01-27T12:40:54.751Z,1.60
2019-01-27T12:41:54.720Z,2.20
2019-01-27T12:42:54.687Z,2.00
2019-01-27T12:43:54.657Z,1.50
2019-01-27T12:44:54.622Z,1.60
2019-01-27T12:45:54.589Z,1.50
2019-01-27T12:46:54.557Z,1.40
2019-01-27T12:47:54.525Z,2.10
2019-01-27T12:48:54.494Z,2.00
2019-01-27T12:49:54.460Z,3.10
2019-01-27T12:50:54.429Z,3.00
2019-01-27T12:51:54.395Z,1.80
2019-01-27T12:52:54.363Z,1.70
2019-01-27T12:53:54.331Z,1.80
2019-01-27T12:54:54.400Z,1.60
2019-01-27T12:55:54.267Z,1.60
2019-01-27T12:56:54.234Z,1.60
2019-01-27T12:57:54.206Z,1.80
2019-01-27T12:58:54.169Z,5.70
2019-01-27T12:59:54.138Z,2.60
2019-01-27T13:00:54.104Z,2.00
2019-01-27T13:01:54.073Z,2.10
2019-01-27T13:02:54.042Z,2.80